sensor_id;sensor_type;location;lat;lon;timestamp;temperature;humidity
33994;DHT22;20673;48.980;8.138;2022-11-23T00:01:01;6.80;99.90
33994;DHT22;20673;48.980;8.138;2022-11-23T00:03:40;6.70;99.90
33994;DHT22;20673;48.980;8.138;2022-11-23T00:06:06;6.60;99.90
33994;DHT22;20673;48.980;8.138;2022-11-23T00:08:32;6.50;99.90
33994;DHT22;20673;48.980;8.138;2022-11-23T00:10:58;6.40;99.90
33994;DHT22;20673;48.980;8.138;2022-11-23T00:13:24;6.30;99.90
33994;DHT22;20673;48.980;8.138;2022-11-23T00:15:50;6.20;99.90
33994;DHT22;20673;48.980;8.138;2022-11-23T00:18:16;6.10;99.90
33994;DHT22;20673;48.980;8.138;2022-11-23T00:20:42;6.10;99.90
33994;DHT22;20673;48.980;8.138;2022-11-23T00:23:09;6.20;99.90
33994;DHT22;20673;48.980;8.138;2022-11-23T00:25:35;6.20;99.90
33994;DHT22;20673;48.980;8.138;2022-11-23T00:28:01;6.10;99.90
33994;DHT22;20673;48.980;8.138;2022-11-23T00:30:27;6.00;99.90
33994;DHT22;20673;48.980;8.138;2022-11-23T00:32:53;5.90;99.90
33994;DHT22;20673;48.980;8.138;2022-11-23T00:35:20;5.80;99.90
33994;DHT22;20673;48.980;8.138;2022-11-23T00:37:47;5.80;99.90
33994;DHT22;20673;48.980;8.138;2022-11-23T00:40:13;5.80;99.90
33994;DHT22;20673;48.980;8.138;2022-11-23T00:42:39;5.70;99.90
33994;DHT22;20673;48.980;8.138;2022-11-23T00:45:06;5.70;99.90
33994;DHT22;20673;48.980;8.138;2022-11-23T00:47:32;5.60;99.90
33994;DHT22;20673;48.980;8.138;2022-11-23T00:49:58;5.50;99.90
33994;DHT22;20673;48.980;8.138;2022-11-23T00:52:24;5.40;99.90
33994;DHT22;20673;48.980;8.138;2022-11-23T00:54:50;5.30;99.90
33994;DHT22;20673;48.980;8.138;2022-11-23T00:57:16;5.20;99.90
33994;DHT22;20673;48.980;8.138;2022-11-23T00:59:42;5.20;99.90
33994;DHT22;20673;48.980;8.138;2022-11-23T01:02:08;5.10;99.90
33994;DHT22;20673;48.980;8.138;2022-11-23T01:04:34;5.00;99.90
33994;DHT22;20673;48.980;8.138;2022-11-23T01:07:00;4.90;99.90
33994;DHT22;20673;48.980;8.138;2022-11-23T01:09:26;4.90;99.90
33994;DHT22;20673;48.980;8.138;2022-11-23T01:11:52;4.90;99.90
33994;DHT22;20673;48.980;8.138;2022-11-23T01:14:18;4.90;99.90
33994;DHT22;20673;48.980;8.138;2022-11-23T01:16:45;4.90;99.90
33994;DHT22;20673;48.980;8.138;2022-11-23T01:19:13;4.80;99.90
33994;DHT22;20673;48.980;8.138;2022-11-23T01:21:41;4.90;99.90
33994;DHT22;20673;48.980;8.138;2022-11-23T01:24:08;4.80;99.90
33994;DHT22;20673;48.980;8.138;2022-11-23T01:26:42;4.80;99.90
33994;DHT22;20673;48.980;8.138;2022-11-23T01:29:11;4.80;99.90
33994;DHT22;20673;48.980;8.138;2022-11-23T01:31:37;4.90;99.90
33994;DHT22;20673;48.980;8.138;2022-11-23T01:34:05;4.90;99.90
33994;DHT22;20673;48.980;8.138;2022-11-23T01:36:32;4.90;99.90
33994;DHT22;20673;48.980;8.138;2022-11-23T01:38:59;4.90;99.90
33994;DHT22;20673;48.980;8.138;2022-11-23T01:41:27;4.90;99.90
33994;DHT22;20673;48.980;8.138;2022-11-23T01:43:58;4.90;99.90
33994;DHT22;20673;48.980;8.138;2022-11-23T01:46:24;4.90;99.90
33994;DHT22;20673;48.980;8.138;2022-11-23T01:48:52;4.90;99.90
33994;DHT22;20673;48.980;8.138;2022-11-23T01:51:22;4.90;99.90
33994;DHT22;20673;48.980;8.138;2022-11-23T01:53:53;4.90;99.90
33994;DHT22;20673;48.980;8.138;2022-11-23T01:56:26;4.90;99.90
33994;DHT22;20673;48.980;8.138;2022-11-23T01:58:58;5.00;99.90
33994;DHT22;20673;48.980;8.138;2022-11-23T02:01:27;5.00;99.90
33994;DHT22;20673;48.980;8.138;2022-11-23T02:03:53;5.00;99.90
33994;DHT22;20673;48.980;8.138;2022-11-23T02:06:22;5.00;99.90
33994;DHT22;20673;48.980;8.138;2022-11-23T02:08:48;5.00;99.90
33994;DHT22;20673;48.980;8.138;2022-11-23T02:11:15;5.10;99.90
33994;DHT22;20673;48.980;8.138;2022-11-23T02:13:42;5.00;99.90
33994;DHT22;20673;48.980;8.138;2022-11-23T02:16:10;5.10;99.90
33994;DHT22;20673;48.980;8.138;2022-11-23T02:18:37;5.10;99.90
33994;DHT22;20673;48.980;8.138;2022-11-23T02:21:06;5.00;99.90
33994;DHT22;20673;48.980;8.138;2022-11-23T02:26:10;5.00;99.90
33994;DHT22;20673;48.980;8.138;2022-11-23T02:28:46;5.10;99.90
33994;DHT22;20673;48.980;8.138;2022-11-23T02:31:17;5.10;99.90
33994;DHT22;20673;48.980;8.138;2022-11-23T02:33:43;5.10;99.90
33994;DHT22;20673;48.980;8.138;2022-11-23T02:36:29;5.20;99.90
33994;DHT22;20673;48.980;8.138;2022-11-23T02:39:08;5.20;99.90
33994;DHT22;20673;48.980;8.138;2022-11-23T02:41:44;5.20;99.90
33994;DHT22;20673;48.980;8.138;2022-11-23T02:44:11;5.20;99.90
33994;DHT22;20673;48.980;8.138;2022-11-23T02:46:43;5.20;99.90
33994;DHT22;20673;48.980;8.138;2022-11-23T02:49:10;5.10;99.90
33994;DHT22;20673;48.980;8.138;2022-11-23T02:51:36;5.10;99.90
33994;DHT22;20673;48.980;8.138;2022-11-23T02:54:02;5.10;99.90
33994;DHT22;20673;48.980;8.138;2022-11-23T02:56:28;5.00;99.90
33994;DHT22;20673;48.980;8.138;2022-11-23T02:58:54;5.00;99.90
33994;DHT22;20673;48.980;8.138;2022-11-23T03:01:20;5.00;99.90
33994;DHT22;20673;48.980;8.138;2022-11-23T03:03:46;5.00;99.90
33994;DHT22;20673;48.980;8.138;2022-11-23T03:06:11;4.90;99.90
33994;DHT22;20673;48.980;8.138;2022-11-23T03:08:37;5.00;99.90
33994;DHT22;20673;48.980;8.138;2022-11-23T03:11:03;5.00;99.90
33994;DHT22;20673;48.980;8.138;2022-11-23T03:13:29;5.00;99.90
33994;DHT22;20673;48.980;8.138;2022-11-23T03:15:55;5.10;99.90
33994;DHT22;20673;48.980;8.138;2022-11-23T03:18:21;5.10;99.90
33994;DHT22;20673;48.980;8.138;2022-11-23T03:20:48;5.10;99.90
33994;DHT22;20673;48.980;8.138;2022-11-23T03:23:14;5.10;99.90
33994;DHT22;20673;48.980;8.138;2022-11-23T03:25:40;5.00;99.90
33994;DHT22;20673;48.980;8.138;2022-11-23T03:28:05;5.00;99.90
33994;DHT22;20673;48.980;8.138;2022-11-23T03:30:32;5.00;99.90
33994;DHT22;20673;48.980;8.138;2022-11-23T03:32:57;4.90;99.90
33994;DHT22;20673;48.980;8.138;2022-11-23T03:35:23;4.90;99.90
33994;DHT22;20673;48.980;8.138;2022-11-23T03:37:49;4.90;99.90
33994;DHT22;20673;48.980;8.138;2022-11-23T03:40:15;4.90;99.90
33994;DHT22;20673;48.980;8.138;2022-11-23T03:42:41;4.90;99.90
33994;DHT22;20673;48.980;8.138;2022-11-23T03:45:08;5.00;99.90
33994;DHT22;20673;48.980;8.138;2022-11-23T03:47:35;5.00;99.90
33994;DHT22;20673;48.980;8.138;2022-11-23T03:50:01;5.00;99.90
33994;DHT22;20673;48.980;8.138;2022-11-23T03:52:27;5.00;99.90
33994;DHT22;20673;48.980;8.138;2022-11-23T03:54:52;5.00;99.90
33994;DHT22;20673;48.980;8.138;2022-11-23T03:57:18;5.00;99.90
33994;DHT22;20673;48.980;8.138;2022-11-23T03:59:44;5.00;99.90
33994;DHT22;20673;48.980;8.138;2022-11-23T04:02:10;4.90;99.90
33994;DHT22;20673;48.980;8.138;2022-11-23T04:04:36;4.90;99.90
33994;DHT22;20673;48.980;8.138;2022-11-23T04:07:02;4.80;99.90
33994;DHT22;20673;48.980;8.138;2022-11-23T04:09:28;4.70;99.90
33994;DHT22;20673;48.980;8.138;2022-11-23T04:11:54;4.60;99.90
33994;DHT22;20673;48.980;8.138;2022-11-23T04:14:20;4.50;99.90
33994;DHT22;20673;48.980;8.138;2022-11-23T04:16:46;4.40;99.90
33994;DHT22;20673;48.980;8.138;2022-11-23T04:19:12;4.30;99.90
33994;DHT22;20673;48.980;8.138;2022-11-23T04:21:38;4.30;99.90
33994;DHT22;20673;48.980;8.138;2022-11-23T04:24:04;4.30;99.90
33994;DHT22;20673;48.980;8.138;2022-11-23T04:26:30;4.10;99.90
33994;DHT22;20673;48.980;8.138;2022-11-23T04:28:56;4.10;99.90
33994;DHT22;20673;48.980;8.138;2022-11-23T04:31:22;3.90;99.90
33994;DHT22;20673;48.980;8.138;2022-11-23T04:33:48;3.90;99.90
33994;DHT22;20673;48.980;8.138;2022-11-23T04:36:14;3.80;99.90
33994;DHT22;20673;48.980;8.138;2022-11-23T04:38:40;3.80;99.90
33994;DHT22;20673;48.980;8.138;2022-11-23T04:41:06;3.80;99.90
33994;DHT22;20673;48.980;8.138;2022-11-23T04:43:32;3.70;99.90
33994;DHT22;20673;48.980;8.138;2022-11-23T04:45:58;3.70;99.90
33994;DHT22;20673;48.980;8.138;2022-11-23T04:48:24;3.60;99.90
33994;DHT22;20673;48.980;8.138;2022-11-23T04:50:50;3.60;99.90
33994;DHT22;20673;48.980;8.138;2022-11-23T04:53:16;3.50;99.90
33994;DHT22;20673;48.980;8.138;2022-11-23T04:55:42;3.50;99.90
33994;DHT22;20673;48.980;8.138;2022-11-23T04:58:07;3.50;99.90
33994;DHT22;20673;48.980;8.138;2022-11-23T05:00:33;3.50;99.90
33994;DHT22;20673;48.980;8.138;2022-11-23T05:03:00;3.50;99.90
33994;DHT22;20673;48.980;8.138;2022-11-23T05:05:26;3.50;99.90
33994;DHT22;20673;48.980;8.138;2022-11-23T05:07:52;3.40;99.90
33994;DHT22;20673;48.980;8.138;2022-11-23T05:10:18;3.40;99.90
33994;DHT22;20673;48.980;8.138;2022-11-23T05:12:44;3.40;99.90
33994;DHT22;20673;48.980;8.138;2022-11-23T05:15:11;3.40;99.90
33994;DHT22;20673;48.980;8.138;2022-11-23T05:17:38;3.40;99.90
33994;DHT22;20673;48.980;8.138;2022-11-23T05:20:05;3.40;99.90
33994;DHT22;20673;48.980;8.138;2022-11-23T05:22:31;3.40;99.90
33994;DHT22;20673;48.980;8.138;2022-11-23T05:24:57;3.50;99.90
33994;DHT22;20673;48.980;8.138;2022-11-23T05:27:23;3.50;99.90
33994;DHT22;20673;48.980;8.138;2022-11-23T05:29:50;3.40;99.90
33994;DHT22;20673;48.980;8.138;2022-11-23T05:32:15;3.30;99.90
33994;DHT22;20673;48.980;8.138;2022-11-23T05:34:41;3.20;99.90
33994;DHT22;20673;48.980;8.138;2022-11-23T05:37:07;3.10;99.90
33994;DHT22;20673;48.980;8.138;2022-11-23T05:39:33;3.00;99.90
33994;DHT22;20673;48.980;8.138;2022-11-23T05:41:59;2.90;99.90
33994;DHT22;20673;48.980;8.138;2022-11-23T05:44:25;2.90;99.90
33994;DHT22;20673;48.980;8.138;2022-11-23T05:46:51;2.80;99.90
33994;DHT22;20673;48.980;8.138;2022-11-23T05:49:17;3.00;99.90
33994;DHT22;20673;48.980;8.138;2022-11-23T05:51:43;3.00;99.90
33994;DHT22;20673;48.980;8.138;2022-11-23T05:54:09;3.00;99.90
33994;DHT22;20673;48.980;8.138;2022-11-23T05:56:35;2.90;99.90
33994;DHT22;20673;48.980;8.138;2022-11-23T05:59:01;2.80;99.90
33994;DHT22;20673;48.980;8.138;2022-11-23T06:01:27;2.80;99.90
33994;DHT22;20673;48.980;8.138;2022-11-23T06:03:53;2.70;99.90
33994;DHT22;20673;48.980;8.138;2022-11-23T06:06:19;2.70;99.90
33994;DHT22;20673;48.980;8.138;2022-11-23T06:08:45;2.60;99.90
33994;DHT22;20673;48.980;8.138;2022-11-23T06:11:11;2.50;99.90
33994;DHT22;20673;48.980;8.138;2022-11-23T06:13:37;2.40;99.90
33994;DHT22;20673;48.980;8.138;2022-11-23T06:16:03;2.40;99.90
33994;DHT22;20673;48.980;8.138;2022-11-23T06:18:29;2.30;99.90
33994;DHT22;20673;48.980;8.138;2022-11-23T06:20:58;2.30;99.90
33994;DHT22;20673;48.980;8.138;2022-11-23T06:23:26;2.20;99.90
33994;DHT22;20673;48.980;8.138;2022-11-23T06:25:52;2.20;99.90
33994;DHT22;20673;48.980;8.138;2022-11-23T06:28:18;2.10;99.90
33994;DHT22;20673;48.980;8.138;2022-11-23T06:30:44;2.10;99.90
33994;DHT22;20673;48.980;8.138;2022-11-23T06:33:10;2.00;99.90
33994;DHT22;20673;48.980;8.138;2022-11-23T06:35:36;2.00;99.90
33994;DHT22;20673;48.980;8.138;2022-11-23T06:38:02;1.90;99.90
33994;DHT22;20673;48.980;8.138;2022-11-23T06:40:28;1.90;99.90
33994;DHT22;20673;48.980;8.138;2022-11-23T06:42:57;2.00;99.90
33994;DHT22;20673;48.980;8.138;2022-11-23T06:45:24;2.10;99.90
33994;DHT22;20673;48.980;8.138;2022-11-23T06:47:54;2.20;99.90
33994;DHT22;20673;48.980;8.138;2022-11-23T06:50:21;2.30;99.90
33994;DHT22;20673;48.980;8.138;2022-11-23T06:52:47;2.20;99.90
33994;DHT22;20673;48.980;8.138;2022-11-23T06:55:15;2.20;99.90
33994;DHT22;20673;48.980;8.138;2022-11-23T06:57:41;2.30;99.90
33994;DHT22;20673;48.980;8.138;2022-11-23T07:00:07;2.30;99.90
33994;DHT22;20673;48.980;8.138;2022-11-23T07:02:35;2.20;99.90
33994;DHT22;20673;48.980;8.138;2022-11-23T07:05:01;2.10;99.90
33994;DHT22;20673;48.980;8.138;2022-11-23T07:07:27;2.10;99.90
33994;DHT22;20673;48.980;8.138;2022-11-23T07:09:53;2.00;99.90
33994;DHT22;20673;48.980;8.138;2022-11-23T07:12:19;2.00;99.90
33994;DHT22;20673;48.980;8.138;2022-11-23T07:14:45;1.90;99.90
33994;DHT22;20673;48.980;8.138;2022-11-23T07:17:11;1.90;99.90
33994;DHT22;20673;48.980;8.138;2022-11-23T07:19:37;1.90;99.90
33994;DHT22;20673;48.980;8.138;2022-11-23T07:22:03;2.00;99.90
33994;DHT22;20673;48.980;8.138;2022-11-23T07:24:29;2.00;99.90
33994;DHT22;20673;48.980;8.138;2022-11-23T07:26:55;2.10;99.90
33994;DHT22;20673;48.980;8.138;2022-11-23T07:29:20;2.10;99.90
33994;DHT22;20673;48.980;8.138;2022-11-23T07:31:47;2.20;99.90
33994;DHT22;20673;48.980;8.138;2022-11-23T07:34:12;2.10;99.90
33994;DHT22;20673;48.980;8.138;2022-11-23T07:36:39;2.20;99.90
33994;DHT22;20673;48.980;8.138;2022-11-23T07:39:04;2.10;99.90
33994;DHT22;20673;48.980;8.138;2022-11-23T07:41:31;2.20;99.90
33994;DHT22;20673;48.980;8.138;2022-11-23T07:43:58;2.30;99.90
33994;DHT22;20673;48.980;8.138;2022-11-23T07:46:25;2.40;99.90
33994;DHT22;20673;48.980;8.138;2022-11-23T07:48:51;2.40;99.90
33994;DHT22;20673;48.980;8.138;2022-11-23T07:51:18;2.50;99.90
33994;DHT22;20673;48.980;8.138;2022-11-23T07:53:45;2.60;99.90
33994;DHT22;20673;48.980;8.138;2022-11-23T07:56:11;2.70;99.90
33994;DHT22;20673;48.980;8.138;2022-11-23T07:58:37;2.80;99.90
33994;DHT22;20673;48.980;8.138;2022-11-23T08:01:03;2.90;99.90
33994;DHT22;20673;48.980;8.138;2022-11-23T08:03:29;3.10;99.90
33994;DHT22;20673;48.980;8.138;2022-11-23T08:05:55;3.30;99.90
33994;DHT22;20673;48.980;8.138;2022-11-23T08:08:21;3.60;99.90
33994;DHT22;20673;48.980;8.138;2022-11-23T08:10:47;3.90;99.90
33994;DHT22;20673;48.980;8.138;2022-11-23T08:13:13;4.10;99.90
33994;DHT22;20673;48.980;8.138;2022-11-23T08:15:39;4.40;99.90
33994;DHT22;20673;48.980;8.138;2022-11-23T08:18:05;4.60;99.90
33994;DHT22;20673;48.980;8.138;2022-11-23T08:20:31;4.80;99.90
33994;DHT22;20673;48.980;8.138;2022-11-23T08:22:57;4.90;99.90
33994;DHT22;20673;48.980;8.138;2022-11-23T08:25:24;5.20;99.90
33994;DHT22;20673;48.980;8.138;2022-11-23T08:27:56;5.40;99.90
33994;DHT22;20673;48.980;8.138;2022-11-23T08:30:20;5.60;99.90
33994;DHT22;20673;48.980;8.138;2022-11-23T08:32:46;5.80;99.90
33994;DHT22;20673;48.980;8.138;2022-11-23T08:35:12;6.00;99.90
33994;DHT22;20673;48.980;8.138;2022-11-23T08:37:38;6.10;99.90
33994;DHT22;20673;48.980;8.138;2022-11-23T08:40:04;6.20;99.90
33994;DHT22;20673;48.980;8.138;2022-11-23T08:42:31;6.40;99.90
33994;DHT22;20673;48.980;8.138;2022-11-23T08:44:57;6.40;99.90
33994;DHT22;20673;48.980;8.138;2022-11-23T08:47:24;6.70;99.90
33994;DHT22;20673;48.980;8.138;2022-11-23T08:49:51;7.00;99.90
33994;DHT22;20673;48.980;8.138;2022-11-23T08:52:17;7.40;99.90
33994;DHT22;20673;48.980;8.138;2022-11-23T08:54:43;7.80;99.90
33994;DHT22;20673;48.980;8.138;2022-11-23T08:57:09;8.10;99.90
33994;DHT22;20673;48.980;8.138;2022-11-23T08:59:34;8.40;99.90
33994;DHT22;20673;48.980;8.138;2022-11-23T09:02:00;8.80;99.90
33994;DHT22;20673;48.980;8.138;2022-11-23T09:04:26;9.00;99.90
33994;DHT22;20673;48.980;8.138;2022-11-23T09:06:54;9.20;99.90
33994;DHT22;20673;48.980;8.138;2022-11-23T09:09:20;9.60;99.90
33994;DHT22;20673;48.980;8.138;2022-11-23T09:11:46;10.10;99.90
33994;DHT22;20673;48.980;8.138;2022-11-23T09:14:11;10.60;99.90
33994;DHT22;20673;48.980;8.138;2022-11-23T09:16:37;10.90;99.90
33994;DHT22;20673;48.980;8.138;2022-11-23T09:19:03;11.20;99.90
33994;DHT22;20673;48.980;8.138;2022-11-23T09:21:31;11.10;99.90
33994;DHT22;20673;48.980;8.138;2022-11-23T09:24:00;11.20;99.90
33994;DHT22;20673;48.980;8.138;2022-11-23T09:26:26;11.30;99.90
33994;DHT22;20673;48.980;8.138;2022-11-23T09:28:52;12.20;99.90
33994;DHT22;20673;48.980;8.138;2022-11-23T09:31:18;12.20;99.90
33994;DHT22;20673;48.980;8.138;2022-11-23T09:33:44;12.30;99.90
33994;DHT22;20673;48.980;8.138;2022-11-23T09:36:10;12.80;99.90
33994;DHT22;20673;48.980;8.138;2022-11-23T09:38:36;13.20;99.90
33994;DHT22;20673;48.980;8.138;2022-11-23T09:41:06;13.40;99.90
33994;DHT22;20673;48.980;8.138;2022-11-23T09:49:21;13.50;99.90
33994;DHT22;20673;48.980;8.138;2022-11-23T09:52:00;13.90;99.90
33994;DHT22;20673;48.980;8.138;2022-11-23T09:54:32;14.80;99.90
33994;DHT22;20673;48.980;8.138;2022-11-23T09:56:56;15.10;99.90
33994;DHT22;20673;48.980;8.138;2022-11-23T10:01:57;14.30;99.90
33994;DHT22;20673;48.980;8.138;2022-11-23T10:04:24;14.00;99.90
33994;DHT22;20673;48.980;8.138;2022-11-23T10:06:59;15.30;99.90
33994;DHT22;20673;48.980;8.138;2022-11-23T10:09:47;15.20;99.90
33994;DHT22;20673;48.980;8.138;2022-11-23T10:12:45;15.00;99.90
33994;DHT22;20673;48.980;8.138;2022-11-23T10:15:19;15.50;99.90
33994;DHT22;20673;48.980;8.138;2022-11-23T10:17:49;15.10;99.90
33994;DHT22;20673;48.980;8.138;2022-11-23T10:20:30;14.80;99.90
33994;DHT22;20673;48.980;8.138;2022-11-23T10:23:06;16.00;99.90
33994;DHT22;20673;48.980;8.138;2022-11-23T10:25:55;16.40;99.90
33994;DHT22;20673;48.980;8.138;2022-11-23T10:28:14;16.30;99.90
33994;DHT22;20673;48.980;8.138;2022-11-23T10:30:41;16.50;99.90
33994;DHT22;20673;48.980;8.138;2022-11-23T10:33:23;15.60;99.90
33994;DHT22;20673;48.980;8.138;2022-11-23T10:35:52;16.10;99.90
33994;DHT22;20673;48.980;8.138;2022-11-23T10:38:19;17.00;99.90
33994;DHT22;20673;48.980;8.138;2022-11-23T10:43:35;17.20;99.90
33994;DHT22;20673;48.980;8.138;2022-11-23T10:48:50;17.00;99.90
33994;DHT22;20673;48.980;8.138;2022-11-23T10:51:26;16.90;99.90
33994;DHT22;20673;48.980;8.138;2022-11-23T10:54:02;16.80;99.90
33994;DHT22;20673;48.980;8.138;2022-11-23T10:56:30;16.50;99.90
33994;DHT22;20673;48.980;8.138;2022-11-23T10:58:58;17.20;99.90
33994;DHT22;20673;48.980;8.138;2022-11-23T11:01:25;16.80;99.90
33994;DHT22;20673;48.980;8.138;2022-11-23T11:03:54;16.80;99.90
33994;DHT22;20673;48.980;8.138;2022-11-23T11:06:22;16.00;99.90
33994;DHT22;20673;48.980;8.138;2022-11-23T11:08:54;16.50;99.90
33994;DHT22;20673;48.980;8.138;2022-11-23T11:11:25;16.70;99.90
33994;DHT22;20673;48.980;8.138;2022-11-23T11:16:33;16.80;99.90
33994;DHT22;20673;48.980;8.138;2022-11-23T11:19:20;16.60;99.90
33994;DHT22;20673;48.980;8.138;2022-11-23T11:21:48;16.60;99.90
33994;DHT22;20673;48.980;8.138;2022-11-23T11:24:15;16.90;99.90
33994;DHT22;20673;48.980;8.138;2022-11-23T11:26:51;16.10;99.90
33994;DHT22;20673;48.980;8.138;2022-11-23T11:29:25;16.40;99.90
33994;DHT22;20673;48.980;8.138;2022-11-23T11:32:08;16.90;99.90
33994;DHT22;20673;48.980;8.138;2022-11-23T11:42:53;16.50;99.90
33994;DHT22;20673;48.980;8.138;2022-11-23T11:45:25;16.00;99.90
33994;DHT22;20673;48.980;8.138;2022-11-23T11:50:31;15.50;99.90
33994;DHT22;20673;48.980;8.138;2022-11-23T11:53:04;16.40;99.90
33994;DHT22;20673;48.980;8.138;2022-11-23T11:55:41;17.10;99.90
33994;DHT22;20673;48.980;8.138;2022-11-23T11:58:13;16.90;99.90
33994;DHT22;20673;48.980;8.138;2022-11-23T12:00:40;16.90;99.90
33994;DHT22;20673;48.980;8.138;2022-11-23T12:06:18;16.70;99.90
33994;DHT22;20673;48.980;8.138;2022-11-23T12:08:49;16.60;99.90
33994;DHT22;20673;48.980;8.138;2022-11-23T12:11:19;16.40;99.90
33994;DHT22;20673;48.980;8.138;2022-11-23T12:13:45;16.50;99.90
33994;DHT22;20673;48.980;8.138;2022-11-23T12:33:02;16.50;99.90
33994;DHT22;20673;48.980;8.138;2022-11-23T12:35:51;16.40;99.90
33994;DHT22;20673;48.980;8.138;2022-11-23T12:47:10;16.00;99.90
33994;DHT22;20673;48.980;8.138;2022-11-23T12:49:52;16.50;99.90
33994;DHT22;20673;48.980;8.138;2022-11-23T12:55:24;17.00;99.90
33994;DHT22;20673;48.980;8.138;2022-11-23T12:58:02;17.30;99.90
33994;DHT22;20673;48.980;8.138;2022-11-23T13:00:38;17.30;99.90
33994;DHT22;20673;48.980;8.138;2022-11-23T13:03:20;17.20;99.90
33994;DHT22;20673;48.980;8.138;2022-11-23T13:06:02;17.30;99.90
33994;DHT22;20673;48.980;8.138;2022-11-23T13:14:31;17.30;99.90
33994;DHT22;20673;48.980;8.138;2022-11-23T13:17:00;16.80;99.90
33994;DHT22;20673;48.980;8.138;2022-11-23T13:19:42;16.70;99.90
33994;DHT22;20673;48.980;8.138;2022-11-23T13:22:10;16.80;99.90
33994;DHT22;20673;48.980;8.138;2022-11-23T13:24:39;17.80;99.90
33994;DHT22;20673;48.980;8.138;2022-11-23T13:29:45;18.40;99.90
33994;DHT22;20673;48.980;8.138;2022-11-23T13:40:26;18.10;99.90
33994;DHT22;20673;48.980;8.138;2022-11-23T13:43:01;18.40;99.90
33994;DHT22;20673;48.980;8.138;2022-11-23T13:45:39;18.50;99.90
33994;DHT22;20673;48.980;8.138;2022-11-23T13:50:59;17.00;99.90
33994;DHT22;20673;48.980;8.138;2022-11-23T13:56:14;15.80;99.90
33994;DHT22;20673;48.980;8.138;2022-11-23T13:58:58;15.00;99.90
33994;DHT22;20673;48.980;8.138;2022-11-23T14:02:00;14.60;99.90
33994;DHT22;20673;48.980;8.138;2022-11-23T14:04:31;14.50;99.90
33994;DHT22;20673;48.980;8.138;2022-11-23T14:07:04;14.30;99.90
33994;DHT22;20673;48.980;8.138;2022-11-23T14:09:54;13.90;99.90
33994;DHT22;20673;48.980;8.138;2022-11-23T14:12:35;13.60;99.90
33994;DHT22;20673;48.980;8.138;2022-11-23T14:15:20;13.20;99.90
33994;DHT22;20673;48.980;8.138;2022-11-23T14:20:33;12.70;99.90
33994;DHT22;20673;48.980;8.138;2022-11-23T14:34:22;11.60;99.90
33994;DHT22;20673;48.980;8.138;2022-11-23T14:37:04;11.50;99.90
33994;DHT22;20673;48.980;8.138;2022-11-23T14:42:20;11.10;99.90
33994;DHT22;20673;48.980;8.138;2022-11-23T14:44:49;11.00;99.90
33994;DHT22;20673;48.980;8.138;2022-11-23T14:47:23;10.90;99.90
33994;DHT22;20673;48.980;8.138;2022-11-23T14:49:52;10.80;99.90
33994;DHT22;20673;48.980;8.138;2022-11-23T14:52:19;10.60;99.90
33994;DHT22;20673;48.980;8.138;2022-11-23T14:54:48;10.40;99.90
33994;DHT22;20673;48.980;8.138;2022-11-23T14:57:16;10.50;99.90
33994;DHT22;20673;48.980;8.138;2022-11-23T14:59:46;10.50;99.90
33994;DHT22;20673;48.980;8.138;2022-11-23T15:02:17;10.30;99.90
33994;DHT22;20673;48.980;8.138;2022-11-23T15:07:22;10.00;99.90
33994;DHT22;20673;48.980;8.138;2022-11-23T15:10:03;9.90;99.90
33994;DHT22;20673;48.980;8.138;2022-11-23T15:12:46;9.90;99.90
33994;DHT22;20673;48.980;8.138;2022-11-23T15:17:52;9.80;99.90
33994;DHT22;20673;48.980;8.138;2022-11-23T15:20:21;9.60;99.90
33994;DHT22;20673;48.980;8.138;2022-11-23T15:22:50;9.40;99.90
33994;DHT22;20673;48.980;8.138;2022-11-23T15:25:16;9.30;99.90
33994;DHT22;20673;48.980;8.138;2022-11-23T15:27:44;9.30;99.90
33994;DHT22;20673;48.980;8.138;2022-11-23T15:30:13;9.30;99.90
33994;DHT22;20673;48.980;8.138;2022-11-23T15:32:41;9.30;99.90
33994;DHT22;20673;48.980;8.138;2022-11-23T15:35:11;9.30;99.90
33994;DHT22;20673;48.980;8.138;2022-11-23T15:37:44;9.20;99.90
33994;DHT22;20673;48.980;8.138;2022-11-23T15:40:12;9.20;99.90
33994;DHT22;20673;48.980;8.138;2022-11-23T15:42:39;9.10;99.90
33994;DHT22;20673;48.980;8.138;2022-11-23T15:45:31;9.10;99.90
33994;DHT22;20673;48.980;8.138;2022-11-23T15:47:53;9.00;99.90
33994;DHT22;20673;48.980;8.138;2022-11-23T15:50:19;9.00;99.90
33994;DHT22;20673;48.980;8.138;2022-11-23T15:52:45;9.10;99.90
33994;DHT22;20673;48.980;8.138;2022-11-23T15:55:11;9.00;99.90
33994;DHT22;20673;48.980;8.138;2022-11-23T15:57:40;8.90;99.90
33994;DHT22;20673;48.980;8.138;2022-11-23T16:00:07;8.90;99.90
33994;DHT22;20673;48.980;8.138;2022-11-23T16:02:35;8.90;99.90
33994;DHT22;20673;48.980;8.138;2022-11-23T16:05:10;8.90;99.90
33994;DHT22;20673;48.980;8.138;2022-11-23T16:07:51;8.90;99.90
33994;DHT22;20673;48.980;8.138;2022-11-23T16:10:30;8.90;99.90
33994;DHT22;20673;48.980;8.138;2022-11-23T16:12:59;8.80;99.90
33994;DHT22;20673;48.980;8.138;2022-11-23T16:18:04;8.80;99.90
33994;DHT22;20673;48.980;8.138;2022-11-23T16:20:32;8.90;99.90
33994;DHT22;20673;48.980;8.138;2022-11-23T16:22:59;9.00;99.90
33994;DHT22;20673;48.980;8.138;2022-11-23T16:25:27;9.00;99.90
33994;DHT22;20673;48.980;8.138;2022-11-23T16:28:15;9.00;99.90
33994;DHT22;20673;48.980;8.138;2022-11-23T16:30:43;9.00;99.90
33994;DHT22;20673;48.980;8.138;2022-11-23T16:33:16;8.90;99.90
33994;DHT22;20673;48.980;8.138;2022-11-23T16:35:43;8.80;99.90
33994;DHT22;20673;48.980;8.138;2022-11-23T16:38:10;8.80;99.90
33994;DHT22;20673;48.980;8.138;2022-11-23T16:40:37;8.70;99.90
33994;DHT22;20673;48.980;8.138;2022-11-23T16:43:03;8.70;99.90
33994;DHT22;20673;48.980;8.138;2022-11-23T16:45:29;8.70;99.90
33994;DHT22;20673;48.980;8.138;2022-11-23T16:47:57;8.60;99.90
33994;DHT22;20673;48.980;8.138;2022-11-23T16:50:26;8.60;99.90
33994;DHT22;20673;48.980;8.138;2022-11-23T16:52:54;8.60;99.90
33994;DHT22;20673;48.980;8.138;2022-11-23T16:55:20;8.60;99.90
33994;DHT22;20673;48.980;8.138;2022-11-23T16:57:47;8.60;99.90
33994;DHT22;20673;48.980;8.138;2022-11-23T17:00:15;8.50;99.90
33994;DHT22;20673;48.980;8.138;2022-11-23T17:02:43;8.50;99.90
33994;DHT22;20673;48.980;8.138;2022-11-23T17:05:12;8.40;99.90
33994;DHT22;20673;48.980;8.138;2022-11-23T17:07:44;8.50;99.90
33994;DHT22;20673;48.980;8.138;2022-11-23T17:10:11;8.40;99.90
33994;DHT22;20673;48.980;8.138;2022-11-23T17:12:38;8.40;99.90
33994;DHT22;20673;48.980;8.138;2022-11-23T17:15:05;8.30;99.90
33994;DHT22;20673;48.980;8.138;2022-11-23T17:17:32;8.30;99.90
33994;DHT22;20673;48.980;8.138;2022-11-23T17:19:58;8.30;99.90
33994;DHT22;20673;48.980;8.138;2022-11-23T17:22:24;8.30;99.90
33994;DHT22;20673;48.980;8.138;2022-11-23T17:24:50;8.30;99.90
33994;DHT22;20673;48.980;8.138;2022-11-23T17:27:19;8.30;99.90
33994;DHT22;20673;48.980;8.138;2022-11-23T17:29:48;8.30;99.90
33994;DHT22;20673;48.980;8.138;2022-11-23T17:32:20;8.20;99.90
33994;DHT22;20673;48.980;8.138;2022-11-23T17:34:46;8.20;99.90
33994;DHT22;20673;48.980;8.138;2022-11-23T17:37:14;8.10;99.90
33994;DHT22;20673;48.980;8.138;2022-11-23T17:39:41;8.10;99.90